Terminal Aerodrome Forecast
Issued by NWS Twin Cities, MN

Home | Current Version | Previous Version | Graphics & Text | Print | Product List | Glossary On
Versions: 1 2 3 4 5 6 7 8 9 10 11 12 13 14 15 16
672
FTUS43 KMPX 240332 AAA
TAFSTC
TAF AMD
KSTC 240332Z 2404/2424 11006KT P6SM BKN020
     FM240500 15006KT P6SM VCTS SCT020CB BKN050
     FM240700 27005KT P6SM SCT020
     FM241500 30014G22KT P6SM FEW050 SCT250=

USA.gov is the U.S. government's official web portal to all federal, state and local government web resources and services.